Time;durP1;ratioP1;P1;durP2;ratioP2;P2;SDS_P1;SDS_P2;PMS_P1;PMS_P2;Temp;Humidity;BMP_temperature;BMP_pressure;BME280_temperature;BME280_humidity;BME280_pressure;Samples;Min_cycle;Max_cycle;Signal;HPM_P1;HPM_P2
2022/12/31 00:00:26;;;;;;;2.38;1.20;;;19.00;99.90;;;;;;4213451;28;20224;-69
2022/12/31 00:02:28;;;;;;;1.38;1.20;;;19.00;99.90;;;;;;4210406;28;20227;-69
2022/12/31 00:04:31;;;;;;;1.88;1.50;;;19.00;99.90;;;;;;4196577;28;20264;-69
2022/12/31 00:06:35;;;;;;;1.75;1.48;;;19.00;99.90;;;;;;4207510;28;20605;-70
2022/12/31 00:08:39;;;;;;;1.35;1.20;;;19.00;99.90;;;;;;4212810;28;20277;-70
2022/12/31 00:10:41;;;;;;;1.33;1.02;;;19.00;99.90;;;;;;4212615;28;20202;-70
2022/12/31 00:12:44;;;;;;;2.15;1.60;;;19.00;99.90;;;;;;4208100;28;20609;-69
2022/12/31 00:14:46;;;;;;;1.40;1.20;;;19.00;99.90;;;;;;4207479;28;20219;-69
2022/12/31 00:16:48;;;;;;;2.08;1.40;;;19.00;99.90;;;;;;4212711;28;20203;-69
2022/12/31 00:18:53;;;;;;;2.13;1.35;;;19.00;99.90;;;;;;4213074;28;20606;-70
2022/12/31 00:20:55;;;;;;;1.38;1.10;;;19.00;99.90;;;;;;4212899;28;20270;-69
2022/12/31 00:22:58;;;;;;;2.28;1.17;;;19.00;99.90;;;;;;4205737;28;20674;-70
2022/12/31 00:25:01;;;;;;;1.95;1.23;;;19.00;99.90;;;;;;4200823;28;20248;-69
2022/12/31 00:27:04;;;;;;;1.90;1.20;;;19.00;99.90;;;;;;4211725;28;20222;-69
2022/12/31 00:29:06;;;;;;;1.65;1.30;;;19.00;99.90;;;;;;4204489;28;20718;-69
2022/12/31 00:31:11;;;;;;;2.03;1.40;;;19.00;99.90;;;;;;4198359;28;20944;-70
2022/12/31 00:33:13;;;;;;;1.73;1.30;;;19.00;99.90;;;;;;4212695;28;20222;-70
2022/12/31 00:35:16;;;;;;;1.58;1.25;;;19.00;99.90;;;;;;4212424;28;20238;-69
2022/12/31 00:37:18;;;;;;;1.52;1.25;;;19.00;99.90;;;;;;4199861;28;20215;-70
2022/12/31 00:39:21;;;;;;;1.20;1.10;;;19.00;99.90;;;;;;4204441;28;20215;-70
2022/12/31 00:41:25;;;;;;;1.75;1.50;;;18.90;99.90;;;;;;4208616;28;20272;-69
2022/12/31 00:43:27;;;;;;;2.10;1.15;;;19.00;99.90;;;;;;4203589;28;20223;-70
2022/12/31 00:45:30;;;;;;;1.63;1.05;;;19.00;99.90;;;;;;4198617;28;20964;-70
2022/12/31 00:47:32;;;;;;;1.20;1.10;;;18.90;99.90;;;;;;4207829;28;20214;-70
2022/12/31 00:49:34;;;;;;;1.30;1.20;;;18.90;99.90;;;;;;4200902;28;20268;-70
2022/12/31 00:51:37;;;;;;;1.77;1.40;;;19.00;99.90;;;;;;4206442;28;20218;-69
2022/12/31 00:53:40;;;;;;;1.88;1.25;;;18.90;99.90;;;;;;4211849;28;20331;-70
2022/12/31 00:55:42;;;;;;;2.30;1.50;;;19.00;99.90;;;;;;4199471;28;20288;-69
2022/12/31 00:57:46;;;;;;;1.52;1.30;;;18.90;99.90;;;;;;4209134;28;20214;-70
2022/12/31 00:59:48;;;;;;;1.73;1.25;;;18.90;99.90;;;;;;4211989;28;20259;-69
2022/12/31 01:01:50;;;;;;;1.83;1.27;;;18.90;99.90;;;;;;4212175;28;20288;-70
2022/12/31 01:03:55;;;;;;;1.30;1.20;;;19.00;99.90;;;;;;4202283;28;20210;-70
2022/12/31 01:05:59;;;;;;;1.83;1.20;;;19.00;99.90;;;;;;4212004;28;20198;-70
2022/12/31 01:08:02;;;;;;;1.88;1.23;;;18.90;99.90;;;;;;4196446;28;20679;-70
2022/12/31 01:10:05;;;;;;;1.55;1.23;;;18.90;99.90;;;;;;4209019;28;20712;-69
2022/12/31 01:12:07;;;;;;;1.80;1.50;;;18.90;99.90;;;;;;4201280;28;20214;-69
2022/12/31 01:14:13;;;;;;;1.48;1.17;;;18.90;99.90;;;;;;4204692;28;20280;-69
2022/12/31 01:16:15;;;;;;;1.45;1.35;;;19.00;99.90;;;;;;4210112;28;20639;-70
2022/12/31 01:18:18;;;;;;;1.30;1.20;;;18.90;99.90;;;;;;4199150;28;20718;-70
2022/12/31 01:20:20;;;;;;;2.15;1.30;;;18.90;99.90;;;;;;4211794;28;20218;-70
2022/12/31 01:22:23;;;;;;;1.55;1.23;;;18.90;99.90;;;;;;4212233;28;20655;-69
2022/12/31 01:24:25;;;;;;;1.90;1.33;;;18.90;99.90;;;;;;4212117;28;20620;-70
2022/12/31 01:26:28;;;;;;;1.67;1.25;;;18.90;99.90;;;;;;4212387;28;20215;-69
2022/12/31 01:28:31;;;;;;;1.17;1.08;;;18.90;99.90;;;;;;4209229;28;20207;-69
2022/12/31 01:30:38;;;;;;;1.48;1.38;;;18.90;99.90;;;;;;4195148;28;20265;-70
2022/12/31 01:32:41;;;;;;;1.52;1.40;;;18.90;99.90;;;;;;4210504;28;20708;-70
2022/12/31 01:34:43;;;;;;;1.90;1.40;;;18.90;99.90;;;;;;4211926;28;20207;-70
2022/12/31 01:36:46;;;;;;;1.30;1.20;;;19.00;99.90;;;;;;4211751;28;20230;-69
2022/12/31 01:38:48;;;;;;;1.10;1.00;;;18.90;99.90;;;;;;4209618;28;20233;-70
2022/12/31 01:40:50;;;;;;;1.65;1.02;;;18.90;99.90;;;;;;4210137;28;20233;-70
2022/12/31 01:42:56;;;;;;;1.17;1.08;;;18.90;99.90;;;;;;4215266;28;20719;-70
2022/12/31 01:44:58;;;;;;;2.65;1.30;;;18.90;99.90;;;;;;4205491;28;20268;-69
2022/12/31 01:47:04;;;;;;;1.55;1.45;;;18.90;99.90;;;;;;4211657;28;20206;-70
2022/12/31 01:49:12;;;;;;;1.58;1.30;;;18.90;99.90;;;;;;4206150;28;20684;-70
2022/12/31 01:51:14;;;;;;;1.85;1.25;;;18.90;99.90;;;;;;4213497;28;20217;-69
2022/12/31 01:53:18;;;;;;;1.83;1.42;;;18.90;99.90;;;;;;4214394;28;20264;-70
2022/12/31 01:55:24;;;;;;;1.63;1.35;;;18.90;99.90;;;;;;4214741;28;20223;-69
2022/12/31 01:57:28;;;;;;;1.33;1.20;;;18.90;99.90;;;;;;4206624;28;20250;-69
2022/12/31 01:59:31;;;;;;;1.20;0.93;;;18.80;99.90;;;;;;4214482;28;20237;-69
2022/12/31 02:01:36;;;;;;;1.30;1.20;;;18.90;99.90;;;;;;4202419;28;20237;-69
2022/12/31 02:03:41;;;;;;;1.45;1.17;;;18.90;99.90;;;;;;4200684;28;20214;-69
2022/12/31 02:05:48;;;;;;;1.85;1.52;;;18.90;99.90;;;;;;4212438;28;20260;-69
2022/12/31 02:07:51;;;;;;;1.55;1.02;;;18.90;99.90;;;;;;4214765;28;20723;-69
2022/12/31 02:09:54;;;;;;;1.20;1.02;;;18.90;99.90;;;;;;4200738;28;20211;-69
2022/12/31 02:11:57;;;;;;;1.67;1.10;;;18.90;99.90;;;;;;4204192;28;20211;-70
2022/12/31 02:14:04;;;;;;;1.08;0.98;;;18.80;99.90;;;;;;4215210;28;20268;-69
2022/12/31 02:16:14;;;;;;;1.60;1.10;;;18.90;99.90;;;;;;4214463;28;20246;-69
2022/12/31 02:18:27;;;;;;;1.50;1.00;;;18.80;99.90;;;;;;4198171;28;20276;-69
2022/12/31 02:21:15;;;;;;;1.50;1.17;;;18.90;99.90;;;;;;4205880;28;20217;-70
2022/12/31 02:23:41;;;;;;;2.40;1.42;;;18.80;99.90;;;;;;4184187;28;20212;-69
2022/12/31 02:26:05;;;;;;;1.10;1.00;;;18.80;99.90;;;;;;4180819;28;20305;-69
2022/12/31 02:28:23;;;;;;;1.73;1.27;;;18.90;99.90;;;;;;4182097;28;20214;-69
2022/12/31 02:30:31;;;;;;;1.55;1.35;;;18.80;99.90;;;;;;4200359;28;20219;-69
2022/12/31 02:32:50;;;;;;;1.33;1.10;;;18.80;99.90;;;;;;4212053;28;20211;-69
2022/12/31 02:34:56;;;;;;;1.10;1.00;;;18.80;99.90;;;;;;4213881;28;20210;-70
2022/12/31 02:37:03;;;;;;;1.13;1.02;;;18.80;99.90;;;;;;4214388;28;20686;-69
2022/12/31 02:39:07;;;;;;;1.08;0.98;;;18.80;99.90;;;;;;4214079;28;20565;-69
2022/12/31 02:41:48;;;;;;;1.30;1.15;;;18.80;99.90;;;;;;4210758;28;20248;-69
2022/12/31 02:43:36;;;;;;;1.85;1.08;;;18.80;99.90;;;;;;4213853;28;20222;-69
2022/12/31 02:45:43;;;;;;;1.35;1.00;;;18.80;99.90;;;;;;4214207;28;20620;-69
2022/12/31 02:47:56;;;;;;;1.23;1.10;;;18.80;99.90;;;;;;4214187;28;20214;-70
2022/12/31 02:50:26;;;;;;;1.40;1.10;;;18.80;99.90;;;;;;4213316;28;20214;-70
2022/12/31 02:52:37;;;;;;;1.23;1.10;;;18.80;99.90;;;;;;4195293;28;20203;-70
2022/12/31 02:54:49;;;;;;;1.50;1.15;;;18.80;99.90;;;;;;4203237;28;20223;-70
2022/12/31 02:57:05;;;;;;;1.50;1.05;;;18.80;99.90;;;;;;4203000;28;20271;-69
2022/12/31 03:04:30;;;;;;;1.65;1.00;;;18.80;99.90;;;;;;4213910;28;20198;-70
2022/12/31 03:06:26;;;;;;;1.30;1.20;;;18.80;99.90;;;;;;4199318;28;20203;-69
2022/12/31 03:08:28;;;;;;;1.33;0.93;;;18.80;99.90;;;;;;4211025;28;20215;-69
2022/12/31 03:10:31;;;;;;;1.45;1.00;;;18.70;99.90;;;;;;4204345;28;20214;-70
2022/12/31 03:12:46;;;;;;;1.23;1.05;;;18.80;99.90;;;;;;4213870;28;20726;-69
2022/12/31 03:14:48;;;;;;;1.60;1.05;;;18.80;99.90;;;;;;4213695;28;20211;-69
2022/12/31 03:16:52;;;;;;;1.88;1.30;;;18.80;99.90;;;;;;4211860;28;20287;-70
2022/12/31 03:23:39;;;;;;;1.88;1.15;;;18.80;99.90;;;;;;4195510;28;20206;-69
2022/12/31 03:25:41;;;;;;;1.55;1.02;;;18.80;99.90;;;;;;4213291;28;20272;-70
2022/12/31 03:27:44;;;;;;;1.20;0.90;;;18.70;99.90;;;;;;4212881;28;20213;-70
2022/12/31 03:29:46;;;;;;;1.17;1.08;;;18.80;99.90;;;;;;4203869;28;20232;-70
2022/12/31 03:31:48;;;;;;;1.77;1.10;;;18.70;99.90;;;;;;4213329;28;20210;-70
2022/12/31 03:33:55;;;;;;;1.60;1.45;;;18.80;99.90;;;;;;4211251;28;20214;-70
2022/12/31 03:35:57;;;;;;;1.10;1.00;;;18.70;99.90;;;;;;4200001;28;20220;-70
2022/12/31 03:38:00;;;;;;;1.40;1.00;;;18.70;99.90;;;;;;4213242;28;20287;-69
2022/12/31 03:40:03;;;;;;;2.22;1.00;;;18.80;99.90;;;;;;4206727;28;20214;-70
2022/12/31 03:42:05;;;;;;;1.10;1.00;;;18.70;99.90;;;;;;4213307;28;20288;-70
2022/12/31 03:44:08;;;;;;;1.27;1.02;;;18.70;99.90;;;;;;4212772;28;20627;-70
2022/12/31 03:46:10;;;;;;;1.20;1.00;;;18.80;99.90;;;;;;4202469;28;20218;-69
2022/12/31 03:48:13;;;;;;;1.45;1.13;;;18.70;99.90;;;;;;4213296;28;20268;-69
2022/12/31 03:50:18;;;;;;;1.17;1.08;;;18.80;99.90;;;;;;4213337;28;20343;-70
2022/12/31 03:52:21;;;;;;;1.23;1.08;;;18.80;99.90;;;;;;4198363;28;20215;-70
2022/12/31 03:54:23;;;;;;;1.27;1.00;;;18.70;99.90;;;;;;4213179;28;20659;-70
2022/12/31 03:56:26;;;;;;;1.13;1.02;;;18.70;99.90;;;;;;4208181;28;20242;-70
2022/12/31 03:58:28;;;;;;;1.42;0.90;;;18.70;99.90;;;;;;4209779;28;20229;-70
2022/12/31 04:00:30;;;;;;;2.05;1.08;;;18.70;99.90;;;;;;4212927;28;20214;-69
2022/12/31 04:02:33;;;;;;;1.20;0.90;;;18.70;99.90;;;;;;4209311;28;20279;-70
2022/12/31 04:04:35;;;;;;;1.02;0.90;;;18.70;99.90;;;;;;4209296;28;20219;-69
2022/12/31 04:06:39;;;;;;;1.30;1.02;;;18.70;99.90;;;;;;4196856;28;20611;-69
2022/12/31 04:08:41;;;;;;;1.48;1.05;;;18.70;99.90;;;;;;4212849;28;20222;-70
2022/12/31 04:10:44;;;;;;;1.13;0.93;;;18.80;99.90;;;;;;4212835;28;20354;-70
2022/12/31 04:12:47;;;;;;;1.50;1.02;;;18.80;99.90;;;;;;4207646;28;20264;-69
2022/12/31 04:14:49;;;;;;;1.20;1.00;;;18.70;99.90;;;;;;4211149;28;20280;-69
2022/12/31 04:16:51;;;;;;;1.25;1.10;;;18.70;99.90;;;;;;4212180;28;20616;-70
2022/12/31 04:18:54;;;;;;;1.27;1.00;;;18.70;99.90;;;;;;4207822;28;20237;-70
2022/12/31 04:21:02;;;;;;;1.58;1.10;;;18.70;99.90;;;;;;4201164;28;20215;-70
2022/12/31 04:23:05;;;;;;;1.02;0.90;;;18.70;99.90;;;;;;4207477;28;20214;-70
2022/12/31 04:25:10;;;;;;;1.10;0.98;;;18.80;99.90;;;;;;4212991;28;20206;-70
2022/12/31 04:27:13;;;;;;;1.13;1.00;;;18.70;99.90;;;;;;4212526;28;20674;-70
2022/12/31 04:29:15;;;;;;;1.73;0.95;;;18.80;99.90;;;;;;4212422;28;20222;-70
2022/12/31 04:31:18;;;;;;;1.10;0.90;;;18.70;99.90;;;;;;4202990;28;20219;-69
2022/12/31 04:33:20;;;;;;;1.23;0.82;;;18.70;99.90;;;;;;4204120;28;20267;-70
2022/12/31 04:35:22;;;;;;;1.50;1.10;;;18.70;99.90;;;;;;4212233;28;20619;-69
2022/12/31 04:37:25;;;;;;;1.95;1.35;;;18.70;99.90;;;;;;4202603;28;20231;-70
2022/12/31 04:39:28;;;;;;;1.30;1.00;;;18.70;99.90;;;;;;4212387;28;20214;-69
2022/12/31 04:41:31;;;;;;;1.60;0.95;;;18.70;99.90;;;;;;4212431;28;20264;-70
2022/12/31 04:43:33;;;;;;;3.83;1.00;;;18.70;99.90;;;;;;4212199;28;20218;-70
2022/12/31 04:45:36;;;;;;;1.35;0.80;;;18.70;99.90;;;;;;4213016;28;20214;-70
2022/12/31 04:47:38;;;;;;;1.30;0.98;;;18.70;99.90;;;;;;4205382;28;20255;-70
2022/12/31 04:49:40;;;;;;;1.70;0.90;;;18.70;99.90;;;;;;4212480;28;20265;-70
2022/12/31 04:51:43;;;;;;;1.25;1.10;;;18.70;99.90;;;;;;4210871;28;20214;-69
2022/12/31 04:53:45;;;;;;;1.40;1.00;;;18.70;99.90;;;;;;4212207;28;20275;-70
2022/12/31 04:55:49;;;;;;;1.00;0.90;;;18.70;99.90;;;;;;4212483;28;20260;-70
2022/12/31 04:57:51;;;;;;;1.10;0.90;;;18.70;99.90;;;;;;4212244;28;20238;-70
2022/12/31 04:59:54;;;;;;;1.67;1.02;;;18.70;99.90;;;;;;4210473;28;20268;-70
2022/12/31 05:01:56;;;;;;;1.27;0.70;;;18.70;99.90;;;;;;4212572;28;20236;-69
2022/12/31 05:03:58;;;;;;;1.15;0.73;;;18.70;99.90;;;;;;4203346;28;20206;-69
2022/12/31 05:06:01;;;;;;;2.08;1.08;;;18.70;99.90;;;;;;4212271;28;20219;-70
2022/12/31 05:08:04;;;;;;;1.63;1.15;;;18.70;99.90;;;;;;4212225;28;20214;-69
2022/12/31 05:10:07;;;;;;;1.25;0.90;;;18.70;99.90;;;;;;4211833;28;20226;-70
2022/12/31 05:12:11;;;;;;;1.33;0.90;;;18.70;99.90;;;;;;4203820;28;20210;-69
2022/12/31 05:14:13;;;;;;;1.50;1.02;;;18.70;99.90;;;;;;4209019;28;20260;-69
2022/12/31 05:16:16;;;;;;;1.08;0.98;;;18.70;99.90;;;;;;4214324;28;20214;-69
2022/12/31 05:18:19;;;;;;;2.00;1.10;;;18.70;99.90;;;;;;4202207;28;20584;-69
2022/12/31 05:20:21;;;;;;;1.25;0.88;;;18.70;99.90;;;;;;4215301;28;20214;-69
2022/12/31 05:22:29;;;;;;;0.88;0.85;;;18.70;99.90;;;;;;4215173;28;20259;-69
2022/12/31 05:24:32;;;;;;;1.05;0.90;;;18.70;99.90;;;;;;4212263;28;20210;-70
2022/12/31 05:26:34;;;;;;;1.45;1.02;;;18.70;99.90;;;;;;4199898;28;20272;-70
2022/12/31 05:28:38;;;;;;;1.63;0.90;;;18.70;99.90;;;;;;4203284;28;20211;-70
2022/12/31 05:30:41;;;;;;;1.67;0.95;;;18.70;99.90;;;;;;4210676;28;20206;-70
2022/12/31 05:32:43;;;;;;;1.25;0.80;;;18.70;99.90;;;;;;4212404;28;20260;-70
2022/12/31 05:34:45;;;;;;;1.10;0.85;;;18.70;99.90;;;;;;4209055;28;20285;-69
2022/12/31 05:36:48;;;;;;;1.05;0.70;;;18.70;99.90;;;;;;4202519;28;20215;-70
2022/12/31 05:38:50;;;;;;;1.50;1.00;;;18.70;99.90;;;;;;4210786;28;20226;-70
2022/12/31 05:41:00;;;;;;;1.27;1.10;;;18.60;99.90;;;;;;4211563;28;20211;-69
2022/12/31 05:43:02;;;;;;;1.35;1.02;;;18.60;99.90;;;;;;4214939;28;20255;-70
2022/12/31 05:45:07;;;;;;;1.20;1.08;;;18.70;99.90;;;;;;4215351;28;20211;-69
2022/12/31 05:47:09;;;;;;;1.42;0.98;;;18.70;99.90;;;;;;4215180;28;20236;-70
2022/12/31 05:49:12;;;;;;;0.90;0.80;;;18.60;99.90;;;;;;4215213;28;20218;-70
2022/12/31 05:51:14;;;;;;;1.23;0.85;;;18.70;99.90;;;;;;4214443;28;20669;-69
2022/12/31 05:53:17;;;;;;;1.88;0.90;;;18.70;99.90;;;;;;4205443;28;20203;-69
2022/12/31 05:55:19;;;;;;;1.30;0.77;;;18.60;99.90;;;;;;4211461;28;20728;-70
2022/12/31 05:57:22;;;;;;;1.55;0.90;;;18.70;99.90;;;;;;4206210;28;20251;-70
2022/12/31 05:59:24;;;;;;;1.00;0.77;;;18.70;99.90;;;;;;4211999;28;20234;-70
2022/12/31 06:01:28;;;;;;;1.20;0.80;;;18.70;99.90;;;;;;4213962;28;20214;-70
2022/12/31 06:03:30;;;;;;;1.48;0.90;;;18.70;99.90;;;;;;4215035;28;20627;-70
2022/12/31 06:05:33;;;;;;;1.27;0.90;;;18.60;99.90;;;;;;4209493;28;20275;-69
2022/12/31 06:07:35;;;;;;;1.17;0.85;;;18.60;99.90;;;;;;4214662;28;20214;-70
2022/12/31 06:09:37;;;;;;;0.70;0.60;;;18.70;99.90;;;;;;4214671;28;20214;-69
2022/12/31 06:11:40;;;;;;;1.15;0.90;;;18.60;99.90;;;;;;4214733;28;20268;-69
2022/12/31 06:13:43;;;;;;;1.08;0.85;;;18.60;99.90;;;;;;4214854;28;20291;-70
2022/12/31 06:15:45;;;;;;;1.30;1.00;;;18.60;99.90;;;;;;4214450;28;20616;-70
2022/12/31 06:17:49;;;;;;;2.33;0.90;;;18.60;99.90;;;;;;4201867;28;20215;-70
2022/12/31 06:19:51;;;;;;;1.95;0.90;;;18.70;99.90;;;;;;4211615;28;20291;-69
2022/12/31 06:21:53;;;;;;;1.33;1.00;;;18.60;99.90;;;;;;4214262;28;20232;-69
2022/12/31 06:23:57;;;;;;;1.77;0.80;;;18.60;99.90;;;;;;4199051;28;20211;-70
2022/12/31 06:26:02;;;;;;;1.35;0.90;;;18.60;99.90;;;;;;4211579;28;20222;-69
2022/12/31 06:28:05;;;;;;;1.50;0.90;;;18.60;99.90;;;;;;4214349;28;20276;-69
2022/12/31 06:30:09;;;;;;;2.00;0.98;;;18.60;99.90;;;;;;4206890;28;20214;-70
2022/12/31 06:32:11;;;;;;;1.10;0.90;;;18.60;99.90;;;;;;4208659;28;20275;-70
2022/12/31 06:34:15;;;;;;;1.75;0.90;;;18.60;99.90;;;;;;4213083;28;20264;-70
2022/12/31 06:36:17;;;;;;;1.30;0.90;;;18.60;99.90;;;;;;4201756;28;20214;-69
2022/12/31 06:38:20;;;;;;;1.48;1.00;;;18.60;99.90;;;;;;4197678;28;20215;-70
2022/12/31 06:40:22;;;;;;;1.00;0.80;;;18.60;99.90;;;;;;4208321;28;20280;-69
2022/12/31 06:42:27;;;;;;;0.70;0.65;;;18.60;99.90;;;;;;4200220;28;20260;-69
2022/12/31 06:44:30;;;;;;;1.33;0.90;;;18.60;99.90;;;;;;4211037;28;20211;-70
2022/12/31 06:46:32;;;;;;;1.10;0.85;;;18.60;99.90;;;;;;4197446;28;20215;-70
2022/12/31 06:48:35;;;;;;;1.13;0.90;;;18.60;99.90;;;;;;4209540;28;20211;-69
2022/12/31 06:50:39;;;;;;;1.65;0.80;;;18.60;99.90;;;;;;4199817;28;20261;-69
2022/12/31 06:52:41;;;;;;;1.45;0.82;;;18.60;99.90;;;;;;4209607;28;20215;-69
2022/12/31 06:54:44;;;;;;;1.60;0.77;;;18.60;99.90;;;;;;4197376;28;20221;-69
2022/12/31 06:56:47;;;;;;;1.33;0.85;;;18.60;99.90;;;;;;4204134;28;20616;-70
2022/12/31 06:58:50;;;;;;;0.82;0.77;;;18.60;99.90;;;;;;4205018;28;20230;-69
2022/12/31 07:00:59;;;;;;;1.27;0.82;;;18.60;99.90;;;;;;4207908;28;20207;-69
2022/12/31 07:03:19;;;;;;;1.02;0.60;;;18.60;99.90;;;;;;4204362;28;20712;-70
2022/12/31 07:05:31;;;;;;;0.98;0.80;;;18.60;99.90;;;;;;4207159;28;20215;-70
2022/12/31 07:07:40;;;;;;;1.60;0.93;;;18.60;99.90;;;;;;4214132;28;20210;-70
2022/12/31 07:09:51;;;;;;;1.02;0.85;;;18.60;99.90;;;;;;4213634;28;20221;-70
2022/12/31 07:12:01;;;;;;;1.70;0.90;;;18.60;99.90;;;;;;4213964;28;20210;-70
2022/12/31 07:14:24;;;;;;;1.65;0.93;;;18.60;99.90;;;;;;4197795;28;20215;-69
2022/12/31 07:16:42;;;;;;;1.02;0.77;;;18.60;99.90;;;;;;4211779;28;20279;-69
2022/12/31 07:18:51;;;;;;;1.00;0.70;;;18.60;99.90;;;;;;4208932;28;20702;-70
2022/12/31 07:20:54;;;;;;;1.25;0.88;;;18.60;99.90;;;;;;4196054;28;20218;-69
2022/12/31 07:22:58;;;;;;;0.90;0.60;;;18.60;99.90;;;;;;4211939;28;20214;-69
2022/12/31 07:25:01;;;;;;;1.42;0.70;;;18.60;99.90;;;;;;4213382;28;20264;-70
2022/12/31 07:27:25;;;;;;;1.92;0.80;;;18.60;99.90;;;;;;4212488;28;20222;-70
2022/12/31 07:29:39;;;;;;;1.83;0.90;;;18.60;99.90;;;;;;4213223;28;20210;-70
2022/12/31 07:31:55;;;;;;;0.90;0.63;;;18.60;99.90;;;;;;4213405;28;20260;-69
2022/12/31 07:34:00;;;;;;;1.45;0.88;;;18.60;99.90;;;;;;4213601;28;20222;-70
2022/12/31 07:36:15;;;;;;;1.02;0.80;;;18.60;99.90;;;;;;4213454;28;20226;-70
2022/12/31 07:38:28;;;;;;;1.60;1.02;;;18.60;99.90;;;;;;4208277;28;20268;-70
2022/12/31 07:40:46;;;;;;;1.30;0.70;;;18.60;99.90;;;;;;4209461;28;20234;-70
2022/12/31 07:43:04;;;;;;;1.10;0.80;;;18.60;99.90;;;;;;4202113;28;20604;-70
2022/12/31 07:45:15;;;;;;;1.33;0.77;;;18.50;99.90;;;;;;4205673;28;20274;-70
2022/12/31 07:47:25;;;;;;;0.90;0.80;;;18.60;99.90;;;;;;4198683;28;20643;-70
2022/12/31 07:49:30;;;;;;;1.00;0.60;;;18.60;99.90;;;;;;4213240;28;20210;-69
2022/12/31 07:51:33;;;;;;;1.45;0.90;;;18.60;99.90;;;;;;4213102;28;20214;-70
2022/12/31 07:53:37;;;;;;;2.05;1.08;;;18.60;99.90;;;;;;4201623;28;20256;-69
2022/12/31 07:55:40;;;;;;;0.88;0.70;;;18.50;99.90;;;;;;4213076;28;20214;-70
2022/12/31 07:57:49;;;;;;;1.58;0.90;;;18.50;99.90;;;;;;4200148;28;20215;-70
2022/12/31 08:00:04;;;;;;;1.60;1.00;;;18.60;99.90;;;;;;4210380;28;20233;-69
2022/12/31 08:02:14;;;;;;;1.20;0.80;;;18.60;99.90;;;;;;4212326;28;20264;-69
2022/12/31 08:04:27;;;;;;;0.93;0.60;;;18.50;99.90;;;;;;4205034;28;20214;-69
2022/12/31 08:06:39;;;;;;;1.73;0.70;;;18.60;99.90;;;;;;4210164;28;20562;-69
2022/12/31 08:08:52;;;;;;;0.95;0.68;;;18.60;99.90;;;;;;4196609;28;20211;-69
2022/12/31 08:11:09;;;;;;;1.52;0.98;;;18.50;99.90;;;;;;4205075;28;20214;-70
2022/12/31 08:13:12;;;;;;;1.15;0.63;;;18.60;99.90;;;;;;4212386;28;20214;-70
2022/12/31 08:15:17;;;;;;;0.63;0.63;;;18.60;99.90;;;;;;4209764;28;20345;-70
2022/12/31 08:17:20;;;;;;;1.00;0.70;;;18.60;99.90;;;;;;4212612;28;20214;-69
2022/12/31 08:19:25;;;;;;;1.35;0.98;;;18.50;99.90;;;;;;4212690;28;20222;-70
2022/12/31 08:21:40;;;;;;;1.08;0.73;;;18.50;99.90;;;;;;4203683;28;20247;-69
2022/12/31 08:23:55;;;;;;;1.23;0.98;;;18.50;99.90;;;;;;4212383;28;20264;-70
2022/12/31 08:26:10;;;;;;;1.27;0.73;;;18.60;99.90;;;;;;4197898;28;20618;-70
2022/12/31 08:28:18;;;;;;;1.25;0.80;;;18.60;99.90;;;;;;4203871;28;20272;-70
2022/12/31 08:30:21;;;;;;;0.85;0.52;;;18.50;99.90;;;;;;4212514;28;20259;-70
2022/12/31 08:32:28;;;;;;;0.70;0.60;;;18.50;99.90;;;;;;4212936;28;20246;-69
2022/12/31 08:34:38;;;;;;;1.15;0.65;;;18.50;99.90;;;;;;4199652;28;20206;-70
2022/12/31 08:36:50;;;;;;;1.48;0.90;;;18.50;99.90;;;;;;4208609;28;20207;-69
2022/12/31 08:39:01;;;;;;;1.05;0.70;;;18.50;99.90;;;;;;4208355;28;20260;-69
2022/12/31 08:41:13;;;;;;;0.93;0.70;;;18.50;99.90;;;;;;4202960;28;20256;-69
2022/12/31 08:43:31;;;;;;;1.70;0.82;;;18.50;99.90;;;;;;4212536;28;20283;-70
2022/12/31 08:45:37;;;;;;;1.00;0.63;;;18.60;99.90;;;;;;4208545;28;20218;-70
2022/12/31 08:47:47;;;;;;;1.60;0.90;;;18.50;99.90;;;;;;4213982;28;20647;-69
2022/12/31 08:49:50;;;;;;;1.55;0.70;;;18.50;99.90;;;;;;4216016;28;20217;-69
2022/12/31 08:51:53;;;;;;;1.52;0.73;;;18.50;99.90;;;;;;4201625;28;20260;-70
2022/12/31 08:53:57;;;;;;;1.83;0.70;;;18.50;99.90;;;;;;4215644;28;20620;-70
2022/12/31 08:56:06;;;;;;;1.50;0.70;;;18.50;99.90;;;;;;4207018;28;20655;-70
2022/12/31 08:58:19;;;;;;;1.13;0.60;;;18.50;99.90;;;;;;4215423;28;20282;-70
2022/12/31 09:00:22;;;;;;;1.08;0.80;;;18.50;99.90;;;;;;4215711;28;20291;-70
2022/12/31 09:02:44;;;;;;;1.00;0.73;;;18.50;99.90;;;;;;4213080;28;20275;-69
2022/12/31 09:04:55;;;;;;;1.88;0.60;;;18.50;99.90;;;;;;4206659;28;20268;-70
2022/12/31 09:07:01;;;;;;;1.52;0.70;;;18.50;99.90;;;;;;4215439;28;20662;-70
2022/12/31 09:09:17;;;;;;;1.33;0.80;;;18.50;99.90;;;;;;4215713;28;20218;-69
2022/12/31 09:11:25;;;;;;;1.35;0.70;;;18.50;99.90;;;;;;4215650;28;20210;-70
2022/12/31 09:13:37;;;;;;;0.77;0.68;;;18.50;99.90;;;;;;4208895;28;20235;-70
2022/12/31 09:15:43;;;;;;;1.55;0.88;;;18.50;99.90;;;;;;4212081;28;20283;-70
2022/12/31 09:17:47;;;;;;;1.10;0.70;;;18.50;99.90;;;;;;4202108;28;20227;-70
2022/12/31 09:19:50;;;;;;;1.23;0.73;;;18.50;99.90;;;;;;4212651;28;20630;-73
2022/12/31 09:21:53;;;;;;;2.03;0.68;;;18.50;99.90;;;;;;4208068;28;20212;-73
2022/12/31 09:23:56;;;;;;;1.70;0.80;;;18.50;99.90;;;;;;4215663;28;20218;-73
2022/12/31 09:26:08;;;;;;;1.50;0.88;;;18.50;99.90;;;;;;4200252;28;20276;-73
2022/12/31 09:28:15;;;;;;;1.75;0.90;;;18.50;99.90;;;;;;4213245;28;20363;-73
2022/12/31 09:30:19;;;;;;;1.63;0.80;;;18.50;99.90;;;;;;4208256;28;20217;-73
2022/12/31 09:32:30;;;;;;;1.42;0.75;;;18.50;99.90;;;;;;4213326;28;20214;-73
2022/12/31 09:34:41;;;;;;;1.25;0.80;;;18.50;99.90;;;;;;4203187;28;20658;-73
2022/12/31 09:36:49;;;;;;;2.00;0.80;;;18.50;99.90;;;;;;4210608;28;20272;-73
2022/12/31 09:39:00;;;;;;;1.30;0.60;;;18.50;99.90;;;;;;4205985;28;20696;-73
2022/12/31 09:41:40;;;;;;;1.92;0.75;;;18.50;99.90;;;;;;4203018;28;20234;-74
2022/12/31 09:44:22;;;;;;;1.48;0.80;;;18.50;99.90;;;;;;4202078;28;20707;-74
2022/12/31 09:47:02;;;;;;;1.25;0.75;;;18.50;99.90;;;;;;4200886;28;20268;-73
2022/12/31 09:49:25;;;;;;;1.38;0.70;;;18.50;99.90;;;;;;4206097;28;20284;-74
2022/12/31 09:51:30;;;;;;;1.52;0.77;;;18.50;99.90;;;;;;4204404;28;20211;-73
2022/12/31 09:54:00;;;;;;;1.13;0.70;;;18.50;99.90;;;;;;4214391;28;20271;-74
2022/12/31 09:56:08;;;;;;;1.35;0.70;;;18.50;99.90;;;;;;4213718;28;20210;-73
2022/12/31 09:58:30;;;;;;;1.10;0.82;;;18.50;99.90;;;;;;4210168;28;20291;-73
2022/12/31 10:00:40;;;;;;;0.95;0.75;;;18.50;99.90;;;;;;4200349;28;20284;-73
2022/12/31 10:03:02;;;;;;;1.48;0.70;;;18.50;99.90;;;;;;4203104;28;20873;-74
2022/12/31 10:05:31;;;;;;;1.73;0.77;;;18.50;99.90;;;;;;4213245;28;20650;-73
2022/12/31 10:07:50;;;;;;;1.35;0.70;;;18.50;99.90;;;;;;4215078;28;20614;-73
2022/12/31 10:10:03;;;;;;;1.35;0.82;;;18.50;99.90;;;;;;4213952;28;20261;-73
2022/12/31 10:12:23;;;;;;;2.05;0.80;;;18.50;99.90;;;;;;4214972;28;20897;-73
2022/12/31 10:14:39;;;;;;;2.28;0.95;;;18.50;99.90;;;;;;4208574;28;20267;-73
2022/12/31 10:17:01;;;;;;;1.73;0.80;;;18.50;99.90;;;;;;4202857;28;20203;-73
2022/12/31 10:19:38;;;;;;;1.83;0.90;;;18.50;99.90;;;;;;4207466;28;20215;-73
2022/12/31 10:21:54;;;;;;;1.52;0.60;;;18.50;99.90;;;;;;4207834;28;20234;-73
2022/12/31 10:24:17;;;;;;;0.90;0.75;;;18.50;99.90;;;;;;4214238;28;20264;-74
2022/12/31 10:26:35;;;;;;;1.60;0.80;;;18.50;99.90;;;;;;4212822;28;20207;-73
2022/12/31 10:28:48;;;;;;;0.95;0.70;;;18.50;99.90;;;;;;4206932;28;20226;-74
2022/12/31 10:31:03;;;;;;;1.25;0.70;;;18.50;99.90;;;;;;4214310;28;20207;-73
2022/12/31 10:33:15;;;;;;;2.30;0.90;;;18.50;99.90;;;;;;4212553;28;20283;-74
2022/12/31 10:35:29;;;;;;;2.38;1.00;;;18.50;99.90;;;;;;4214466;28;20214;-74
2022/12/31 10:37:42;;;;;;;1.20;0.70;;;18.50;99.90;;;;;;4204738;28;20215;-73
2022/12/31 10:39:57;;;;;;;1.75;1.00;;;18.50;99.90;;;;;;4201289;28;20211;-74
2022/12/31 10:42:41;;;;;;;1.55;0.77;;;18.50;99.90;;;;;;4209575;28;20698;-74
2022/12/31 10:45:33;;;;;;;1.30;0.75;;;18.50;99.90;;;;;;4202998;28;20268;-73
2022/12/31 10:48:04;;;;;;;1.45;0.80;;;18.50;99.90;;;;;;4209510;28;20260;-74
2022/12/31 10:50:46;;;;;;;1.40;0.80;;;18.50;99.90;;;;;;4214333;28;20271;-74
2022/12/31 10:53:22;;;;;;;2.05;0.77;;;18.50;99.90;;;;;;4205307;28;20210;-73
2022/12/31 10:55:54;;;;;;;1.25;0.50;;;18.50;99.90;;;;;;4214051;28;20266;-74
2022/12/31 10:58:21;;;;;;;1.23;0.90;;;18.40;99.90;;;;;;4211376;28;20704;-73
2022/12/31 11:00:27;;;;;;;1.83;0.70;;;18.50;99.90;;;;;;4199624;28;20222;-74
2022/12/31 11:02:58;;;;;;;1.40;0.75;;;18.50;99.90;;;;;;4213051;28;20241;-73
2022/12/31 11:05:40;;;;;;;2.55;1.00;;;18.40;99.90;;;;;;4191259;28;20218;-74
2022/12/31 11:08:02;;;;;;;2.88;0.90;;;18.50;99.90;;;;;;4200920;28;20215;-74
2022/12/31 11:10:26;;;;;;;1.55;0.85;;;18.50;99.90;;;;;;4213202;28;20246;-74
2022/12/31 11:12:54;;;;;;;1.20;0.63;;;18.50;99.90;;;;;;4206743;28;20222;-75
2022/12/31 11:15:15;;;;;;;1.67;0.90;;;18.40;99.90;;;;;;4203548;28;20222;-73
2022/12/31 11:17:34;;;;;;;2.47;1.00;;;18.50;99.90;;;;;;4212437;28;20659;-74